createdAt,value
2019-02-28T00:01:32.537Z,101456.45
2019-02-28T00:04:03.678Z,101455.32
2019-02-28T00:06:32.939Z,101452.73
2019-02-28T00:09:02.101Z,101453.25
2019-02-28T00:11:32.464Z,101445.00
2019-02-28T00:14:01.674Z,101447.14
2019-02-28T00:16:30.830Z,101443.75
2019-02-28T00:19:00.038Z,101456.80
2019-02-28T00:21:29.171Z,101453.69
2019-02-28T00:23:58.685Z,101452.08
2019-02-28T00:26:27.858Z,101453.06
2019-02-28T00:29:00.490Z,101446.85
2019-02-28T00:31:27.972Z,101447.19
2019-02-28T00:33:57.138Z,101446.57
2019-02-28T00:36:26.288Z,101437.34
2019-02-28T00:38:55.823Z,101436.95
2019-02-28T00:41:25.090Z,101436.55
2019-02-28T00:43:56.868Z,101422.88
2019-02-28T00:46:25.203Z,101422.12
2019-02-28T00:48:54.402Z,101422.14
2019-02-28T00:51:23.577Z,101425.98
2019-02-28T00:53:52.765Z,101423.16
2019-02-28T00:56:21.898Z,101412.78
2019-02-28T00:58:51.083Z,101410.66
2019-02-28T01:01:20.228Z,101406.78
2019-02-28T01:03:49.380Z,101409.64
2019-02-28T01:06:18.579Z,101405.66
2019-02-28T01:08:47.734Z,101403.20
2019-02-28T01:11:17.855Z,101398.80
2019-02-28T01:13:47.007Z,101396.00
2019-02-28T01:16:19.423Z,101394.77
2019-02-28T01:18:47.285Z,101395.51
2019-02-28T01:21:16.533Z,101405.69
2019-02-28T01:23:45.706Z,101398.30
2019-02-28T01:26:14.949Z,101395.70
2019-02-28T01:28:44.129Z,101399.35
2019-02-28T01:31:13.320Z,101398.09
2019-02-28T01:33:42.470Z,101393.26
2019-02-28T01:36:12.181Z,101393.26
2019-02-28T01:38:42.707Z,101390.31
2019-02-28T01:41:11.968Z,101383.56
2019-02-28T01:43:41.141Z,101383.83
2019-02-28T01:46:10.327Z,101379.23
2019-02-28T01:48:39.583Z,101377.94
2019-02-28T01:51:08.728Z,101373.59
2019-02-28T01:53:37.878Z,101369.30
2019-02-28T01:56:07.071Z,101368.98
2019-02-28T01:58:36.236Z,101360.76
2019-02-28T02:01:05.842Z,101358.86
2019-02-28T02:05:55.408Z,101356.13
2019-02-28T02:08:24.615Z,101358.25
2019-02-28T02:10:55.842Z,101359.99
2019-02-28T02:13:24.790Z,101359.09
2019-02-28T02:15:54.045Z,101356.95
2019-02-28T02:18:23.235Z,101360.31
2019-02-28T02:20:52.384Z,101361.02
2019-02-28T02:23:21.685Z,101362.05
2019-02-28T02:25:50.932Z,101349.94
2019-02-28T02:28:20.143Z,101351.05
2019-02-28T02:30:50.914Z,101353.81
2019-02-28T02:33:20.161Z,101350.34
2019-02-28T02:35:49.414Z,101344.92
2019-02-28T02:38:18.604Z,101341.64
2019-02-28T02:40:47.752Z,101333.08
2019-02-28T02:43:16.960Z,101322.70
2019-02-28T02:45:46.173Z,101321.11
2019-02-28T02:48:15.363Z,101315.13
2019-02-28T02:50:44.517Z,101313.80
2019-02-28T02:53:13.875Z,101320.66
2019-02-28T02:55:43.092Z,101311.42
2019-02-28T02:58:12.278Z,101310.33
2019-02-28T03:00:41.510Z,101303.40
2019-02-28T03:03:10.759Z,101294.27
2019-02-28T03:05:39.935Z,101284.50
2019-02-28T03:08:09.234Z,101280.72
2019-02-28T03:10:38.399Z,101276.63
2019-02-28T03:13:07.557Z,101277.13
2019-02-28T03:15:37.297Z,101265.19
